Time;durP1;ratioP1;P1;durP2;ratioP2;P2;SDS_P1;SDS_P2;PMS_P1;PMS_P2;Temp;Humidity;BMP_temperature;BMP_pressure;BME280_temperature;BME280_humidity;BME280_pressure;Samples;Min_cycle;Max_cycle;Signal;HPM_P1;HPM_P2
2022/10/03 00:01:39;;;;;;;21.75;3.42;;;10.20;99.90;;;;;;4933625;29;20555;-61
2022/10/03 00:04:21;;;;;;;9.10;2.95;;;10.20;99.90;;;;;;4933602;29;20193;-62
2022/10/03 00:06:59;;;;;;;9.63;2.85;;;10.10;99.90;;;;;;4933977;29;20186;-62
2022/10/03 00:09:43;;;;;;;11.30;2.80;;;10.10;99.90;;;;;;4933474;29;20217;-61
2022/10/03 00:12:17;;;;;;;5.05;2.40;;;10.10;99.90;;;;;;4933349;29;20190;-62
2022/10/03 00:14:53;;;;;;;6.30;2.65;;;10.10;99.90;;;;;;4933290;29;20233;-61
2022/10/03 00:17:30;;;;;;;10.60;3.00;;;10.10;99.90;;;;;;4933104;29;20193;-62
2022/10/03 00:20:04;;;;;;;10.10;2.95;;;10.10;99.90;;;;;;4933308;29;20190;-62
2022/10/03 00:22:38;;;;;;;14.25;2.97;;;10.10;99.90;;;;;;4932909;29;20200;-62
2022/10/03 00:25:20;;;;;;;7.50;3.50;;;10.00;99.90;;;;;;4933562;29;20279;-62
2022/10/03 00:27:55;;;;;;;10.85;3.60;;;10.00;99.90;;;;;;4936266;29;20197;-62
2022/10/03 00:30:23;;;;;;;8.32;2.92;;;10.00;99.90;;;;;;4936792;29;20196;-61
2022/10/03 00:33:15;;;;;;;10.10;3.03;;;10.10;99.90;;;;;;4936620;29;20217;-63
2022/10/03 00:35:58;;;;;;;20.05;4.18;;;10.10;99.90;;;;;;4937010;29;20226;-61
2022/10/03 00:38:56;;;;;;;8.77;2.75;;;10.10;99.90;;;;;;4936503;29;20190;-62
2022/10/03 00:41:51;;;;;;;12.32;3.58;;;10.10;99.90;;;;;;4907623;28;20213;-62
2022/10/03 00:44:43;;;;;;;11.40;3.07;;;10.10;99.90;;;;;;4930923;28;20577;-62
2022/10/03 00:47:36;;;;;;;18.23;3.55;;;10.10;99.90;;;;;;4908996;29;20454;-62
2022/10/03 00:50:38;;;;;;;7.78;3.70;;;10.10;99.90;;;;;;4934374;29;20616;-62
2022/10/03 00:53:31;;;;;;;9.47;2.17;;;10.00;99.90;;;;;;4936363;29;20194;-62
2022/10/03 00:56:11;;;;;;;12.52;2.63;;;10.00;99.90;;;;;;4936520;29;20524;-62
2022/10/03 00:58:50;;;;;;;11.15;2.75;;;10.00;99.90;;;;;;4937081;29;20190;-62
2022/10/03 01:01:24;;;;;;;10.68;3.00;;;10.00;99.90;;;;;;4936941;29;20213;-61
2022/10/03 01:04:04;;;;;;;11.70;2.65;;;10.00;99.90;;;;;;4935839;29;20564;-63
2022/10/03 01:06:37;;;;;;;16.17;3.85;;;9.90;99.90;;;;;;4936260;29;20190;-62
2022/10/03 01:09:30;;;;;;;13.93;3.50;;;9.90;99.90;;;;;;4936128;29;20217;-61
2022/10/03 01:12:07;;;;;;;9.15;2.75;;;9.90;99.90;;;;;;4936887;28;20214;-61
2022/10/03 01:14:50;;;;;;;14.38;3.13;;;9.90;99.90;;;;;;4935964;29;20704;-63
2022/10/03 01:17:27;;;;;;;12.45;3.05;;;9.80;99.90;;;;;;4936113;29;20589;-62
2022/10/03 01:20:30;;;;;;;11.70;3.10;;;9.80;99.90;;;;;;4937711;29;20340;-62
2022/10/03 01:23:23;;;;;;;15.52;2.95;;;9.80;99.90;;;;;;4936802;29;20224;-62
2022/10/03 01:25:56;;;;;;;10.07;3.20;;;9.80;99.90;;;;;;4935986;29;20218;-62
2022/10/03 01:31:30;;;;;;;12.00;2.80;;;9.80;99.90;;;;;;4940478;29;20656;-62
2022/10/03 01:34:04;;;;;;;13.05;3.25;;;9.80;99.90;;;;;;4940870;29;20201;-61
2022/10/03 01:36:35;;;;;;;4.75;2.47;;;9.80;99.90;;;;;;4941082;29;20213;-61
2022/10/03 01:39:11;;;;;;;14.10;3.05;;;9.80;99.90;;;;;;4940743;29;20213;-62
2022/10/03 01:41:47;;;;;;;13.13;3.45;;;9.80;99.90;;;;;;4940282;29;20201;-62
2022/10/03 01:44:23;;;;;;;14.45;3.08;;;9.80;99.90;;;;;;4940064;29;20204;-62
2022/10/03 01:46:55;;;;;;;9.98;2.50;;;9.80;99.90;;;;;;4939167;29;20642;-61
2022/10/03 01:49:29;;;;;;;15.00;3.47;;;9.80;99.90;;;;;;4938775;29;20538;-62
2022/10/03 01:52:03;;;;;;;14.30;3.20;;;9.80;99.90;;;;;;4939723;29;20202;-62
2022/10/03 01:54:36;;;;;;;9.48;3.00;;;9.80;99.90;;;;;;4940711;29;20221;-61
2022/10/03 01:57:13;;;;;;;12.90;3.15;;;9.80;99.90;;;;;;4940058;29;20194;-62
2022/10/03 01:59:47;;;;;;;18.60;3.53;;;9.80;99.90;;;;;;4941336;29;20197;-61
2022/10/03 02:02:25;;;;;;;7.88;2.97;;;9.70;99.90;;;;;;4938794;29;20189;-62
2022/10/03 02:04:59;;;;;;;13.55;3.30;;;9.80;99.90;;;;;;4935990;29;20222;-60
2022/10/03 02:07:35;;;;;;;10.25;2.97;;;9.80;99.90;;;;;;4936265;29;20190;-62
2022/10/03 02:10:12;;;;;;;10.13;2.72;;;9.80;99.90;;;;;;4935215;29;20225;-62
2022/10/03 02:12:41;;;;;;;12.52;2.50;;;9.80;99.90;;;;;;4935406;29;20185;-62
2022/10/03 02:15:18;;;;;;;9.40;2.55;;;9.80;99.90;;;;;;4934974;29;20237;-62
2022/10/03 02:17:53;;;;;;;14.38;3.30;;;9.80;99.90;;;;;;4934881;29;20194;-61
2022/10/03 02:20:27;;;;;;;10.20;2.83;;;9.90;99.90;;;;;;4934924;29;20228;-62
2022/10/03 02:22:56;;;;;;;9.35;2.85;;;9.80;99.90;;;;;;4934657;29;20559;-63
2022/10/03 02:25:35;;;;;;;10.85;3.35;;;9.90;99.90;;;;;;4934932;29;20225;-61
2022/10/03 02:28:50;;;;;;;8.48;3.00;;;9.80;99.90;;;;;;4934795;29;20566;-61
2022/10/03 02:31:55;;;;;;;8.35;3.92;;;9.80;99.90;;;;;;4934515;29;20206;-62
2022/10/03 02:34:31;;;;;;;12.35;2.88;;;9.80;99.90;;;;;;4934623;29;20229;-62
2022/10/03 02:37:34;;;;;;;16.85;3.70;;;9.70;99.90;;;;;;4934180;29;20209;-60
2022/10/03 02:40:34;;;;;;;11.75;2.72;;;9.70;99.90;;;;;;4934676;28;20559;-62
2022/10/03 02:43:42;;;;;;;13.63;2.88;;;9.70;99.90;;;;;;4934489;29;20197;-62
2022/10/03 02:47:12;;;;;;;7.82;2.72;;;9.80;99.90;;;;;;4934412;29;20240;-61
2022/10/03 02:50:14;;;;;;;13.70;2.63;;;9.80;99.90;;;;;;4933334;29;20186;-60
2022/10/03 02:53:21;;;;;;;10.95;2.85;;;9.80;99.90;;;;;;4934216;29;20259;-61
2022/10/03 02:56:38;;;;;;;12.60;4.13;;;9.80;99.90;;;;;;4934106;29;20313;-61
2022/10/03 02:59:48;;;;;;;11.55;2.53;;;9.80;99.90;;;;;;4901302;29;20213;-61
2022/10/03 03:02:53;;;;;;;8.73;2.47;;;9.70;99.90;;;;;;4940190;29;20190;-60
2022/10/03 03:05:31;;;;;;;13.15;3.47;;;9.70;99.90;;;;;;4940212;29;20233;-62
2022/10/03 03:08:24;;;;;;;5.97;2.05;;;9.70;99.90;;;;;;4940053;29;20197;-61
2022/10/03 03:11:17;;;;;;;13.25;2.70;;;9.60;99.90;;;;;;4935535;29;20638;-61
2022/10/03 03:14:27;;;;;;;8.88;2.30;;;9.60;99.90;;;;;;4934199;29;20621;-61
2022/10/03 03:17:22;;;;;;;12.35;3.50;;;9.50;99.90;;;;;;4933659;29;20273;-61
2022/10/03 03:20:11;;;;;;;13.10;2.97;;;9.60;99.90;;;;;;4933810;29;20273;-61
2022/10/03 03:22:56;;;;;;;11.85;4.00;;;9.60;99.90;;;;;;4934084;29;20191;-61
2022/10/03 03:25:44;;;;;;;12.63;3.22;;;9.60;99.90;;;;;;4935336;29;20225;-61
2022/10/03 03:28:21;;;;;;;11.82;3.28;;;9.60;99.90;;;;;;4933793;29;20646;-62
2022/10/03 03:30:59;;;;;;;14.50;3.40;;;9.60;99.90;;;;;;4933813;29;20197;-61
2022/10/03 03:33:33;;;;;;;14.52;3.35;;;9.70;99.90;;;;;;4934429;29;20214;-62
2022/10/03 03:36:10;;;;;;;6.45;3.08;;;9.70;99.90;;;;;;4933568;29;20229;-62
2022/10/03 03:38:44;;;;;;;17.23;3.10;;;9.70;99.90;;;;;;4933536;29;20196;-62
2022/10/03 03:41:29;;;;;;;7.90;2.55;;;9.70;99.90;;;;;;4934753;29;20193;-63
2022/10/03 03:44:14;;;;;;;10.15;3.10;;;9.70;99.90;;;;;;4933294;29;20701;-61
2022/10/03 03:46:57;;;;;;;7.00;2.40;;;9.70;99.90;;;;;;4933496;29;20193;-62
2022/10/03 03:49:50;;;;;;;13.18;3.20;;;9.80;99.90;;;;;;4933525;29;20195;-62
2022/10/03 03:52:36;;;;;;;9.32;2.83;;;9.80;99.90;;;;;;4933505;29;20195;-61
2022/10/03 03:55:26;;;;;;;19.38;3.55;;;9.90;99.90;;;;;;4933372;29;20240;-62
2022/10/03 03:58:13;;;;;;;9.18;3.28;;;9.90;99.90;;;;;;4930920;29;20201;-62
2022/10/03 04:00:55;;;;;;;9.82;2.70;;;9.90;99.90;;;;;;4932968;29;20190;-62
2022/10/03 04:03:34;;;;;;;7.03;2.45;;;10.00;99.90;;;;;;4933463;29;20568;-61
2022/10/03 04:06:22;;;;;;;12.98;3.13;;;10.00;99.90;;;;;;4933457;29;20272;-61
2022/10/03 04:10:31;;;;;;;8.20;2.35;;;10.00;99.90;;;;;;5111165;27;20551;-61
2022/10/03 04:13:19;;;;;;;14.02;3.53;;;9.90;99.90;;;;;;5111062;28;20187;-63
2022/10/03 04:16:05;;;;;;;6.47;2.30;;;9.90;99.90;;;;;;5110927;28;20215;-61
2022/10/03 04:18:58;;;;;;;8.85;3.30;;;9.80;99.90;;;;;;5108426;28;20656;-61
2022/10/03 04:22:01;;;;;;;10.60;2.90;;;9.80;99.90;;;;;;5090719;28;20184;-61
2022/10/03 04:25:14;;;;;;;7.78;2.33;;;9.80;99.90;;;;;;5090648;28;20222;-61
2022/10/03 04:28:33;;;;;;;9.77;2.55;;;9.80;99.90;;;;;;5090418;28;20209;-63
2022/10/03 04:31:15;;;;;;;11.02;2.80;;;9.90;99.90;;;;;;5060654;28;20200;-62
2022/10/03 04:34:02;;;;;;;9.32;3.40;;;9.90;99.90;;;;;;5091355;28;20180;-61
2022/10/03 04:36:53;;;;;;;11.68;3.60;;;9.90;99.90;;;;;;5100641;28;20261;-61
2022/10/03 04:39:29;;;;;;;12.85;3.20;;;10.00;99.90;;;;;;5093127;28;20189;-61
2022/10/03 04:42:02;;;;;;;14.70;3.28;;;10.00;99.90;;;;;;5110673;28;20188;-62
2022/10/03 04:44:43;;;;;;;8.90;2.97;;;10.00;99.90;;;;;;5091603;28;20757;-61
2022/10/03 04:47:18;;;;;;;5.10;2.47;;;10.00;99.90;;;;;;5102895;28;20595;-62
2022/10/03 04:49:52;;;;;;;12.32;2.90;;;10.00;99.90;;;;;;5109897;28;20199;-61
2022/10/03 04:52:25;;;;;;;13.32;2.80;;;9.90;99.90;;;;;;5093451;28;20223;-61
2022/10/03 04:55:01;;;;;;;8.70;2.92;;;9.80;99.90;;;;;;5089843;28;20232;-63
2022/10/03 04:57:35;;;;;;;12.75;2.85;;;9.80;99.90;;;;;;5090170;28;20191;-62
2022/10/03 05:00:17;;;;;;;10.68;3.30;;;9.80;99.90;;;;;;5098631;28;20545;-61
2022/10/03 05:02:54;;;;;;;9.95;2.65;;;9.70;99.90;;;;;;5091807;28;20318;-60
2022/10/03 05:05:53;;;;;;;4.82;2.67;;;9.70;99.90;;;;;;5097273;28;20224;-62
2022/10/03 05:08:32;;;;;;;8.98;3.22;;;9.60;99.90;;;;;;5097639;28;20212;-62
2022/10/03 05:11:12;;;;;;;11.55;4.05;;;9.60;99.90;;;;;;5099562;28;20309;-60
2022/10/03 05:13:56;;;;;;;14.25;3.67;;;9.60;99.90;;;;;;5100303;28;20270;-62
2022/10/03 05:16:35;;;;;;;16.08;3.10;;;9.60;99.90;;;;;;5094490;28;20605;-60
2022/10/03 05:19:34;;;;;;;19.35;3.30;;;9.60;99.90;;;;;;5108143;28;20195;-62
2022/10/03 05:22:04;;;;;;;5.53;2.60;;;9.60;99.90;;;;;;5085929;28;20196;-61
2022/10/03 05:24:38;;;;;;;13.60;3.45;;;9.60;99.90;;;;;;5077466;28;20290;-61
2022/10/03 05:27:19;;;;;;;10.52;3.38;;;9.60;99.90;;;;;;5076316;28;20195;-61
2022/10/03 05:29:58;;;;;;;17.27;3.63;;;9.60;99.90;;;;;;5095497;28;20679;-61
2022/10/03 05:32:30;;;;;;;14.18;3.70;;;9.60;99.90;;;;;;5096664;28;20562;-62
2022/10/03 05:35:33;;;;;;;11.70;3.10;;;9.60;99.90;;;;;;5079105;28;20236;-61
2022/10/03 05:38:17;;;;;;;5.88;2.78;;;9.60;99.90;;;;;;5050259;28;20200;-62
2022/10/03 05:40:50;;;;;;;9.38;2.70;;;9.60;99.90;;;;;;5094708;28;20193;-61
2022/10/03 05:43:28;;;;;;;7.88;3.08;;;9.60;99.90;;;;;;5088712;28;20198;-61
2022/10/03 05:46:02;;;;;;;7.18;2.70;;;9.60;99.90;;;;;;5075567;28;20225;-61
2022/10/03 05:48:44;;;;;;;12.85;3.47;;;9.60;99.90;;;;;;5074149;28;20218;-62
2022/10/03 05:51:45;;;;;;;9.50;3.05;;;9.60;99.90;;;;;;5075821;28;20185;-60
2022/10/03 05:54:46;;;;;;;9.40;3.10;;;9.60;99.90;;;;;;5075881;28;20199;-62
2022/10/03 05:57:35;;;;;;;6.47;2.67;;;9.60;99.90;;;;;;5065673;28;20294;-60
2022/10/03 06:00:09;;;;;;;21.52;3.25;;;9.60;99.90;;;;;;5076161;28;20570;-61
2022/10/03 06:03:26;;;;;;;13.35;2.83;;;9.70;99.90;;;;;;5096775;28;20561;-61
2022/10/03 06:06:07;;;;;;;12.23;3.00;;;9.70;99.90;;;;;;5093591;28;20675;-61
2022/10/03 06:08:49;;;;;;;12.18;2.97;;;9.80;99.90;;;;;;5083790;28;20204;-62
2022/10/03 06:11:34;;;;;;;7.05;3.10;;;9.90;99.90;;;;;;5096519;28;20188;-61
2022/10/03 06:14:23;;;;;;;12.63;2.22;;;9.80;99.90;;;;;;5080345;28;20189;-61
2022/10/03 06:17:02;;;;;;;15.95;3.50;;;9.90;99.90;;;;;;5075067;28;20204;-61
2022/10/03 06:19:47;;;;;;;14.80;2.53;;;9.80;99.90;;;;;;5078779;28;20180;-62
2022/10/03 06:22:50;;;;;;;10.80;2.45;;;9.90;99.90;;;;;;5085868;28;20188;-63
2022/10/03 06:25:45;;;;;;;7.05;2.60;;;9.90;99.90;;;;;;5090435;28;20220;-61
2022/10/03 06:28:43;;;;;;;11.32;3.13;;;9.90;99.90;;;;;;5082638;28;20197;-62
2022/10/03 06:31:39;;;;;;;16.75;2.97;;;9.90;99.90;;;;;;5081120;28;20542;-61
2022/10/03 06:34:33;;;;;;;10.82;3.00;;;10.00;99.90;;;;;;5083260;28;20590;-62
2022/10/03 06:37:21;;;;;;;8.88;2.35;;;10.10;99.90;;;;;;5085183;28;20188;-61
2022/10/03 06:40:21;;;;;;;10.47;2.83;;;10.10;99.90;;;;;;5089650;28;20195;-62
2022/10/03 06:43:02;;;;;;;10.35;2.95;;;10.20;99.90;;;;;;5087354;28;20483;-60
2022/10/03 06:46:06;;;;;;;8.07;2.22;;;10.30;99.90;;;;;;5085663;28;20704;-61
2022/10/03 06:48:57;;;;;;;12.07;2.43;;;10.30;99.90;;;;;;5080204;28;20189;-61
2022/10/03 06:52:07;;;;;;;12.05;2.95;;;10.40;99.90;;;;;;5092734;28;20438;-61
2022/10/03 06:55:18;;;;;;;5.38;2.42;;;10.50;99.90;;;;;;5058469;28;20213;-61
2022/10/03 06:58:13;;;;;;;12.57;3.00;;;10.50;99.90;;;;;;5055102;28;20197;-62
2022/10/03 07:00:54;;;;;;;7.93;2.10;;;10.60;99.90;;;;;;5074412;28;20903;-61
2022/10/03 07:04:03;;;;;;;8.10;2.67;;;10.60;99.90;;;;;;5082612;28;21003;-61
2022/10/03 07:06:53;;;;;;;6.70;2.20;;;10.70;99.90;;;;;;5092579;28;20446;-60
2022/10/03 07:09:52;;;;;;;6.63;2.63;;;10.80;99.90;;;;;;5093823;28;20581;-60
2022/10/03 07:12:52;;;;;;;6.40;2.10;;;10.90;99.90;;;;;;5082473;28;20452;-60
2022/10/03 07:15:45;;;;;;;7.10;3.03;;;11.00;99.90;;;;;;5090980;28;21020;-60
2022/10/03 07:18:40;;;;;;;7.43;3.40;;;11.10;99.90;;;;;;5089873;28;20792;-61
2022/10/03 07:21:38;;;;;;;9.47;2.30;;;11.30;99.90;;;;;;5092565;28;20437;-61
2022/10/03 07:24:26;;;;;;;10.57;2.33;;;11.40;99.90;;;;;;5094777;28;20422;-61
2022/10/03 07:27:19;;;;;;;14.50;2.50;;;11.50;99.90;;;;;;5094917;28;20455;-61
2022/10/03 07:30:09;;;;;;;13.80;3.90;;;11.50;99.90;;;;;;5095607;28;20467;-61
2022/10/03 07:33:12;;;;;;;14.27;2.83;;;11.50;99.90;;;;;;5072799;28;20817;-62
2022/10/03 07:39:09;;;;;;;8.17;2.87;;;11.60;99.90;;;;;;5075480;28;20403;-61
2022/10/03 07:42:08;;;;;;;9.13;2.20;;;11.60;99.90;;;;;;5076161;28;20416;-62
2022/10/03 07:45:12;;;;;;;5.80;2.70;;;11.60;99.90;;;;;;5076820;28;20471;-62
2022/10/03 07:48:16;;;;;;;8.93;2.67;;;11.70;99.90;;;;;;5076119;28;20428;-61
2022/10/03 07:51:05;;;;;;;8.30;2.83;;;11.70;99.90;;;;;;5065076;28;20546;-59
2022/10/03 07:54:02;;;;;;;4.80;2.37;;;11.80;99.90;;;;;;5077332;28;20563;-61
2022/10/03 07:57:11;;;;;;;8.43;2.03;;;11.90;99.90;;;;;;5076431;28;20419;-61
2022/10/03 08:00:23;;;;;;;6.50;2.03;;;12.00;99.90;;;;;;5075489;28;20458;-61
2022/10/03 08:03:24;;;;;;;7.63;2.67;;;12.10;99.90;;;;;;5073165;28;20444;-61
2022/10/03 08:06:19;;;;;;;9.10;2.30;;;12.30;99.90;;;;;;5073114;28;20467;-61
2022/10/03 08:09:20;;;;;;;8.20;3.23;;;12.40;99.90;;;;;;5073533;28;20490;-61
2022/10/03 08:12:12;;;;;;;9.07;2.13;;;12.50;99.90;;;;;;5074024;28;20534;-61
2022/10/03 08:14:48;;;;;;;8.93;2.67;;;12.60;99.90;;;;;;5074422;28;20470;-62
2022/10/03 08:17:48;;;;;;;8.73;1.83;;;12.70;99.90;;;;;;5075142;28;20446;-61
2022/10/03 08:20:44;;;;;;;9.80;2.53;;;12.80;99.90;;;;;;5085655;28;20445;-61
2022/10/03 08:23:36;;;;;;;7.63;2.63;;;12.80;99.90;;;;;;5063410;28;20451;-61
2022/10/03 08:26:16;;;;;;;9.30;2.20;;;12.80;99.90;;;;;;5091082;28;20470;-61
2022/10/03 08:29:05;;;;;;;8.23;2.40;;;12.90;99.90;;;;;;5094467;28;20948;-60
2022/10/03 08:32:21;;;;;;;7.00;2.50;;;13.00;99.90;;;;;;5091891;28;20473;-62
2022/10/03 08:35:18;;;;;;;7.27;2.17;;;13.10;99.90;;;;;;5093791;28;20456;-61
2022/10/03 08:38:32;;;;;;;7.20;1.70;;;13.20;99.90;;;;;;5095122;28;20430;-61
2022/10/03 08:41:57;;;;;;;6.73;1.90;;;13.30;99.90;;;;;;5095132;28;20517;-61
2022/10/03 08:45:00;;;;;;;4.50;1.93;;;13.40;99.90;;;;;;5094628;28;20799;-61
2022/10/03 08:47:55;;;;;;;6.93;2.57;;;13.50;99.90;;;;;;5094536;28;20437;-61
2022/10/03 08:50:52;;;;;;;10.40;2.97;;;13.60;99.90;;;;;;5093881;28;20462;-60
2022/10/03 08:53:48;;;;;;;5.20;1.50;;;13.60;99.90;;;;;;5093476;28;20434;-61
2022/10/03 08:56:17;;;;;;;8.00;2.40;;;13.70;99.90;;;;;;5095824;28;20465;-62
2022/10/03 08:59:22;;;;;;;9.60;2.63;;;13.70;99.90;;;;;;5079269;28;20439;-60
2022/10/03 09:02:21;;;;;;;6.50;2.03;;;13.80;99.90;;;;;;5076465;28;20455;-61
2022/10/03 09:05:15;;;;;;;6.00;1.97;;;13.90;99.90;;;;;;5076642;28;20459;-62
2022/10/03 09:08:06;;;;;;;7.60;2.23;;;14.10;99.90;;;;;;5076890;28;20437;-62
2022/10/03 09:10:45;;;;;;;11.40;2.03;;;14.20;99.90;;;;;;5077812;28;20470;-62
2022/10/03 09:13:35;;;;;;;11.80;2.13;;;14.30;99.90;;;;;;5076149;28;20935;-61
2022/10/03 09:16:34;;;;;;;9.80;2.33;;;14.40;99.90;;;;;;5075894;28;20469;-61
2022/10/03 09:19:20;;;;;;;10.40;2.20;;;14.60;99.90;;;;;;5075978;28;20424;-61
2022/10/03 09:22:18;;;;;;;13.37;2.20;;;14.90;99.90;;;;;;5076149;28;20772;-60
2022/10/03 09:25:22;;;;;;;6.73;2.00;;;15.20;99.90;;;;;;5099756;22;20459;-61
2022/10/03 09:28:22;;;;;;;9.93;2.20;;;15.40;99.90;;;;;;4994101;28;21005;-60
2022/10/03 09:30:55;;;;;;;5.17;1.60;;;15.60;99.90;;;;;;4994210;28;20489;-60
2022/10/03 09:34:08;;;;;;;5.40;1.73;;;15.70;99.90;;;;;;5040583;28;20448;-61
2022/10/03 09:37:09;;;;;;;5.63;1.90;;;15.80;99.90;;;;;;4974909;28;20475;-59
2022/10/03 09:40:21;;;;;;;5.27;1.57;;;15.80;99.90;;;;;;5049019;28;20462;-61
2022/10/03 09:43:32;;;;;;;11.53;2.87;;;15.80;99.90;;;;;;5055608;28;20420;-63
2022/10/03 09:46:26;;;;;;;6.80;1.27;;;15.80;99.90;;;;;;5019905;28;20483;-61
2022/10/03 09:49:31;;;;;;;7.70;2.00;;;15.80;99.90;;;;;;5055785;28;20424;-61
2022/10/03 09:52:17;;;;;;;9.10;1.83;;;15.80;99.90;;;;;;5011147;28;20451;-61
2022/10/03 09:55:04;;;;;;;4.43;1.63;;;15.90;99.90;;;;;;5062729;28;20424;-61
2022/10/03 09:57:58;;;;;;;7.37;1.97;;;15.90;99.90;;;;;;5059887;28;20435;-59
2022/10/03 10:00:27;;;;;;;9.67;1.70;;;16.00;99.90;;;;;;5057761;28;20455;-60
2022/10/03 10:03:36;;;;;;;4.50;1.83;;;16.00;99.90;;;;;;5056293;28;20947;-61
2022/10/03 10:06:24;;;;;;;7.50;2.17;;;16.10;99.90;;;;;;5026657;28;20464;-61
2022/10/03 10:09:21;;;;;;;8.47;2.00;;;16.20;99.90;;;;;;5056335;28;20803;-60
2022/10/03 10:12:21;;;;;;;3.27;1.43;;;16.30;99.90;;;;;;5056608;28;20464;-61
2022/10/03 10:15:13;;;;;;;4.67;1.30;;;16.40;99.90;;;;;;5031009;28;20451;-61
2022/10/03 10:18:22;;;;;;;7.20;1.80;;;16.40;99.90;;;;;;5056249;28;20433;-60
2022/10/03 10:21:26;;;;;;;7.20;2.10;;;16.40;99.90;;;;;;5056353;28;20412;-61
2022/10/03 10:24:09;;;;;;;6.33;2.00;;;16.40;99.80;;;;;;5056526;28;20451;-61
2022/10/03 10:27:19;;;;;;;7.70;1.70;;;16.20;99.50;;;;;;5055100;28;20468;-61
2022/10/03 10:30:04;;;;;;;7.80;1.90;;;16.00;99.80;;;;;;5031103;28;20498;-60
2022/10/03 10:33:23;;;;;;;5.93;1.40;;;15.80;99.90;;;;;;5064518;28;20452;-60
2022/10/03 10:36:37;;;;;;;9.30;2.37;;;15.80;99.90;;;;;;5049872;28;20490;-60
2022/10/03 10:39:38;;;;;;;13.93;2.43;;;15.80;99.90;;;;;;5062512;28;20466;-61
2022/10/03 10:42:58;;;;;;;4.40;1.53;;;16.00;99.90;;;;;;5062409;28;20440;-60
2022/10/03 10:45:49;;;;;;;5.13;1.87;;;16.10;99.90;;;;;;5062304;28;20464;-61
2022/10/03 10:49:01;;;;;;;7.00;2.30;;;16.20;99.50;;;;;;5062911;28;20792;-61
2022/10/03 10:52:05;;;;;;;8.40;2.10;;;16.20;99.40;;;;;;5060934;28;20472;-61
2022/10/03 10:55:27;;;;;;;6.30;2.07;;;16.20;99.40;;;;;;5046159;28;20444;-57
2022/10/03 10:58:38;;;;;;;7.80;1.50;;;16.50;99.30;;;;;;5061914;28;20450;-60
2022/10/03 11:01:36;;;;;;;7.50;2.10;;;16.70;98.50;;;;;;5064449;28;20433;-60
2022/10/03 11:04:31;;;;;;;3.00;1.30;;;16.70;97.90;;;;;;5063151;28;20428;-61
2022/10/03 11:07:16;;;;;;;5.70;1.77;;;16.90;97.90;;;;;;5061207;28;21010;-61
2022/10/03 11:09:52;;;;;;;9.00;2.30;;;17.00;97.30;;;;;;5063665;28;20428;-60
2022/10/03 11:12:57;;;;;;;5.40;1.80;;;17.20;96.50;;;;;;5063949;28;20420;-61
2022/10/03 11:15:58;;;;;;;4.23;1.87;;;17.30;95.60;;;;;;5061056;28;20471;-61
2022/10/03 11:19:10;;;;;;;6.77;2.83;;;17.60;95.20;;;;;;5060016;28;20458;-61
2022/10/03 11:22:10;;;;;;;4.10;1.90;;;17.60;94.50;;;;;;5055160;28;20420;-61
2022/10/03 11:25:11;;;;;;;4.37;1.47;;;17.50;94.10;;;;;;5054635;28;20492;-61
2022/10/03 11:28:08;;;;;;;5.50;1.33;;;17.50;93.70;;;;;;5056025;28;20505;-61
2022/10/03 11:31:15;;;;;;;4.97;1.97;;;17.20;93.30;;;;;;5055387;28;20480;-59
2022/10/03 11:34:11;;;;;;;7.33;1.70;;;17.00;93.80;;;;;;5054342;28;20452;-61
2022/10/03 11:37:05;;;;;;;4.20;1.47;;;16.90;94.20;;;;;;5054881;28;20472;-60
2022/10/03 11:39:42;;;;;;;4.07;1.23;;;16.90;94.50;;;;;;5055983;28;20452;-59
2022/10/03 11:42:22;;;;;;;6.20;1.90;;;16.90;94.40;;;;;;5055085;28;20864;-61
2022/10/03 11:44:57;;;;;;;5.03;1.60;;;16.80;94.20;;;;;;5054765;28;20420;-61
2022/10/03 11:47:53;;;;;;;3.40;1.20;;;16.70;94.50;;;;;;5055495;28;20519;-61
2022/10/03 11:50:41;;;;;;;5.27;1.50;;;16.60;94.60;;;;;;5055321;28;20563;-61
2022/10/03 11:53:15;;;;;;;4.97;1.27;;;16.50;94.90;;;;;;5054502;28;20802;-61
2022/10/03 11:55:45;;;;;;;4.43;1.30;;;16.50;95.00;;;;;;5054025;28;20486;-61
2022/10/03 11:58:40;;;;;;;5.20;1.77;;;16.70;95.10;;;;;;5053726;28;20988;-60
2022/10/03 12:01:29;;;;;;;7.30;2.03;;;16.80;94.90;;;;;;5053951;28;20979;-61
2022/10/03 12:04:03;;;;;;;4.37;1.60;;;16.90;94.60;;;;;;5055144;28;20428;-60
2022/10/03 12:09:44;;;;;;;3.83;1.70;;;17.00;94.20;;;;;;5053358;28;20408;-61
2022/10/03 12:12:19;;;;;;;7.63;1.60;;;16.90;94.00;;;;;;5053224;28;20505;-62
2022/10/03 12:14:49;;;;;;;5.90;1.93;;;16.80;93.90;;;;;;5052967;28;20837;-60
2022/10/03 12:17:22;;;;;;;8.20;2.50;;;16.80;93.80;;;;;;5053228;28;20434;-62
2022/10/03 12:20:02;;;;;;;5.30;1.43;;;16.80;93.40;;;;;;5053581;28;20425;-61
2022/10/03 12:25:29;;;;;;;4.23;2.10;;;16.80;92.80;;;;;;5027897;28;20476;-59
2022/10/03 12:28:10;;;;;;;5.93;1.20;;;16.90;92.50;;;;;;5053472;28;20439;-61
2022/10/03 12:30:42;;;;;;;3.70;2.00;;;17.00;92.30;;;;;;5054845;28;20547;-61
2022/10/03 12:33:26;;;;;;;5.77;1.80;;;17.10;92.10;;;;;;5058168;28;20436;-61
2022/10/03 12:36:02;;;;;;;4.50;1.57;;;17.10;91.80;;;;;;5060262;28;20463;-60
2022/10/03 12:38:50;;;;;;;7.20;1.57;;;17.10;91.70;;;;;;5059939;28;20490;-60
2022/10/03 12:41:27;;;;;;;3.80;1.50;;;17.20;91.50;;;;;;5059838;28;20466;-60
2022/10/03 12:44:13;;;;;;;5.10;1.20;;;17.10;91.40;;;;;;5059814;28;20428;-60
2022/10/03 12:46:49;;;;;;;2.60;1.23;;;17.10;91.00;;;;;;5060484;28;20967;-61
2022/10/03 12:49:21;;;;;;;6.27;1.60;;;17.20;90.70;;;;;;5058547;28;20908;-61
2022/10/03 12:51:54;;;;;;;3.87;1.40;;;17.20;90.50;;;;;;5058370;28;20500;-61
2022/10/03 12:54:37;;;;;;;3.73;1.20;;;17.20;90.20;;;;;;5056436;28;20879;-60
2022/10/03 12:57:34;;;;;;;7.00;3.03;;;17.20;89.80;;;;;;5057802;28;20432;-61
2022/10/03 13:00:05;;;;;;;4.70;1.43;;;17.10;89.50;;;;;;5053322;28;20483;-62
2022/10/03 13:02:37;;;;;;;3.30;1.30;;;17.10;88.90;;;;;;5055236;28;20436;-61
2022/10/03 13:05:36;;;;;;;3.07;1.00;;;17.20;88.70;;;;;;5056822;28;20472;-60
2022/10/03 13:08:18;;;;;;;4.60;1.53;;;17.30;88.20;;;;;;5034204;28;20491;-61
2022/10/03 13:10:49;;;;;;;3.70;1.80;;;17.40;87.20;;;;;;5056828;28;20471;-61
2022/10/03 13:13:27;;;;;;;6.07;1.37;;;17.40;87.10;;;;;;5056627;28;20431;-61
2022/10/03 13:16:16;;;;;;;8.70;1.60;;;17.50;86.60;;;;;;5052705;28;20464;-61
2022/10/03 13:18:58;;;;;;;3.93;1.23;;;17.50;86.00;;;;;;5054758;28;20440;-61
2022/10/03 13:21:41;;;;;;;2.90;1.10;;;17.50;85.40;;;;;;5059335;28;20428;-60
2022/10/03 13:24:19;;;;;;;4.33;1.40;;;17.50;85.30;;;;;;5051403;28;20449;-59
2022/10/03 13:26:55;;;;;;;3.70;1.13;;;17.40;84.90;;;;;;5057839;28;20488;-60
2022/10/03 13:29:28;;;;;;;6.50;1.30;;;17.30;85.00;;;;;;5056456;28;20440;-61
2022/10/03 13:32:09;;;;;;;3.60;1.27;;;17.20;84.70;;;;;;5049727;28;21035;-61
2022/10/03 13:38:19;;;;;;;2.63;1.20;;;17.10;85.00;;;;;;5000697;28;21003;-60
2022/10/03 13:40:54;;;;;;;4.43;1.53;;;17.10;85.00;;;;;;5035605;28;20429;-62
2022/10/03 13:43:26;;;;;;;4.40;1.40;;;17.00;85.50;;;;;;5035680;28;20468;-61
2022/10/03 13:45:56;;;;;;;3.83;1.20;;;17.00;86.10;;;;;;5035409;28;20445;-61
2022/10/03 13:48:26;;;;;;;3.53;1.20;;;17.10;86.70;;;;;;5035554;28;20441;-60
2022/10/03 13:51:01;;;;;;;2.50;1.03;;;17.20;86.80;;;;;;5051650;28;20469;-60
2022/10/03 13:53:50;;;;;;;9.40;1.50;;;17.30;86.70;;;;;;5055121;28;21023;-61
2022/10/03 13:56:25;;;;;;;2.73;1.17;;;17.30;86.50;;;;;;5048309;28;20475;-62
2022/10/03 13:59:03;;;;;;;2.63;1.27;;;17.20;86.50;;;;;;5055194;28;20431;-61
2022/10/03 14:01:53;;;;;;;2.70;1.20;;;17.30;86.70;;;;;;5054818;28;21007;-61
2022/10/03 14:04:35;;;;;;;3.47;1.10;;;17.40;86.50;;;;;;5054305;28;20470;-61
2022/10/03 14:07:13;;;;;;;2.00;0.90;;;17.40;85.90;;;;;;5055086;28;20431;-62
2022/10/03 14:10:05;;;;;;;3.23;1.30;;;17.30;86.20;;;;;;5054587;28;20825;-61
2022/10/03 14:12:49;;;;;;;4.17;1.40;;;17.20;86.60;;;;;;5055078;28;20479;-61
2022/10/03 14:15:36;;;;;;;3.53;1.23;;;17.10;87.20;;;;;;5038380;28;20594;-61
2022/10/03 14:18:15;;;;;;;3.63;1.27;;;17.00;87.90;;;;;;5042087;28;20473;-63
2022/10/03 14:21:19;;;;;;;3.10;1.10;;;16.90;88.40;;;;;;5054805;28;20464;-63
2022/10/03 14:23:51;;;;;;;5.57;1.40;;;16.90;88.70;;;;;;5049442;28;20441;-64
2022/10/03 14:26:28;;;;;;;4.10;1.40;;;16.90;88.90;;;;;;5034655;28;20568;-63
2022/10/03 14:29:03;;;;;;;4.73;1.17;;;16.80;89.30;;;;;;5034686;28;20433;-64
2022/10/03 14:31:35;;;;;;;2.93;0.90;;;16.80;89.70;;;;;;5044275;28;20467;-63
2022/10/03 14:34:13;;;;;;;3.47;1.50;;;16.80;90.00;;;;;;5054194;28;20908;-63
2022/10/03 14:36:46;;;;;;;4.70;1.27;;;16.70;90.20;;;;;;5054478;28;20867;-64
2022/10/03 14:39:28;;;;;;;3.50;1.20;;;16.70;90.40;;;;;;5052311;28;20433;-63
2022/10/03 14:42:32;;;;;;;4.30;1.90;;;16.70;90.50;;;;;;5034542;28;20429;-62
2022/10/03 14:45:01;;;;;;;3.93;1.23;;;16.80;90.50;;;;;;5051455;28;20468;-64
2022/10/03 14:47:35;;;;;;;6.50;1.50;;;16.90;90.40;;;;;;5054508;28;20440;-64
2022/10/03 14:50:06;;;;;;;2.67;1.10;;;17.10;90.10;;;;;;5042034;28;20441;-62
2022/10/03 14:52:39;;;;;;;2.53;1.20;;;17.20;89.80;;;;;;5043902;28;20590;-63